createdAt,value
2023-01-04T00:02:18.113Z,23.88
2023-01-04T00:05:04.407Z,20.90
2023-01-04T00:07:50.205Z,22.08
2023-01-04T00:10:36.037Z,21.70
2023-01-04T00:13:21.798Z,26.63
2023-01-04T00:16:11.715Z,26.60
2023-01-04T00:18:58.071Z,26.08
2023-01-04T00:21:44.001Z,28.15
2023-01-04T00:24:30.201Z,25.60
2023-01-04T00:27:15.678Z,22.95
2023-01-04T00:30:01.496Z,24.17
2023-01-04T00:32:46.781Z,26.23
2023-01-04T00:39:18.272Z,24.80
2023-01-04T00:42:07.069Z,25.52
2023-01-04T00:44:52.805Z,25.95
2023-01-04T00:47:38.534Z,25.13
2023-01-04T00:50:23.968Z,26.20
2023-01-04T00:53:10.852Z,24.20
2023-01-04T00:56:00.637Z,28.77
2023-01-04T00:58:46.356Z,26.25
2023-01-04T01:01:33.305Z,26.85
2023-01-04T01:04:22.537Z,26.48
2023-01-04T01:07:08.276Z,25.70
2023-01-04T01:09:54.091Z,26.40
2023-01-04T01:12:39.394Z,25.02
2023-01-04T01:15:25.273Z,26.38
2023-01-04T01:18:10.788Z,27.15
2023-01-04T01:20:56.871Z,24.67
2023-01-04T01:23:43.947Z,26.45
2023-01-04T01:26:29.914Z,23.98
2023-01-04T01:29:15.421Z,26.40
2023-01-04T01:32:01.710Z,27.98
2023-01-04T01:34:47.483Z,32.78
2023-01-04T01:37:33.460Z,27.45
2023-01-04T01:40:18.929Z,29.30
2023-01-04T01:43:06.337Z,28.23
2023-01-04T01:45:53.995Z,25.35
2023-01-04T01:48:40.183Z,23.25
2023-01-04T01:51:26.611Z,23.50
2023-01-04T01:54:16.230Z,25.38
2023-01-04T01:57:04.971Z,26.48
2023-01-04T01:59:51.695Z,27.52
2023-01-04T02:02:37.355Z,31.60
2023-01-04T02:05:24.467Z,28.67
2023-01-04T02:08:10.223Z,26.52
2023-01-04T02:10:56.512Z,27.95
2023-01-04T02:14:01.444Z,27.48
2023-01-04T02:16:57.237Z,29.25
2023-01-04T02:20:15.327Z,35.85
2023-01-04T02:23:25.815Z,30.10
2023-01-04T02:26:17.390Z,27.23
2023-01-04T02:29:17.820Z,28.17
2023-01-04T02:32:40.142Z,26.30
2023-01-04T02:35:42.155Z,25.45
2023-01-04T02:38:33.671Z,24.70
2023-01-04T02:41:34.400Z,25.60
2023-01-04T02:44:52.248Z,28.85
2023-01-04T02:47:57.473Z,28.40
2023-01-04T02:51:26.999Z,25.30
2023-01-04T02:54:19.267Z,24.75
2023-01-04T02:58:02.245Z,25.77
2023-01-04T03:01:15.259Z,25.05
2023-01-04T03:04:57.396Z,24.95
2023-01-04T03:07:54.381Z,24.42
2023-01-04T03:10:49.075Z,26.92
2023-01-04T03:13:40.664Z,30.13
2023-01-04T03:16:26.882Z,27.88
2023-01-04T03:19:14.269Z,25.48
2023-01-04T03:21:59.890Z,25.20
2023-01-04T03:25:04.380Z,25.42
2023-01-04T03:28:09.276Z,26.55
2023-01-04T03:31:19.349Z,25.55
2023-01-04T03:34:23.644Z,25.10
2023-01-04T03:37:24.884Z,23.80
2023-01-04T03:40:36.694Z,25.48
2023-01-04T03:43:56.254Z,23.88
2023-01-04T03:47:11.616Z,24.83
2023-01-04T03:50:05.500Z,25.30
2023-01-04T03:52:52.186Z,24.60
2023-01-04T03:55:39.823Z,24.67
2023-01-04T03:58:26.020Z,33.85
2023-01-04T04:01:12.849Z,46.42
2023-01-04T04:04:17.297Z,32.67
2023-01-04T04:07:22.423Z,32.55
2023-01-04T04:10:08.155Z,28.92
2023-01-04T04:12:54.291Z,28.67
2023-01-04T04:15:40.056Z,31.65
2023-01-04T04:18:25.967Z,30.80
2023-01-04T04:21:28.337Z,29.15
2023-01-04T04:24:19.792Z,31.17
2023-01-04T04:29:51.266Z,29.23
2023-01-04T04:32:37.170Z,30.92
2023-01-04T04:35:23.430Z,31.73
2023-01-04T04:38:08.870Z,29.35
2023-01-04T04:41:13.352Z,31.25
2023-01-04T04:43:58.975Z,31.48
2023-01-04T04:46:45.914Z,31.35
2023-01-04T04:49:32.580Z,32.58
2023-01-04T04:52:19.067Z,35.72
2023-01-04T04:55:05.682Z,38.28
2023-01-04T04:57:52.164Z,31.52
2023-01-04T05:00:40.849Z,31.30
2023-01-04T05:03:27.238Z,28.58
2023-01-04T05:06:13.532Z,29.83
2023-01-04T05:08:59.762Z,29.02
2023-01-04T05:12:03.749Z,28.00
2023-01-04T05:14:49.407Z,26.40
2023-01-04T05:17:34.994Z,25.70
2023-01-04T05:20:20.932Z,26.88
2023-01-04T05:23:07.324Z,27.80
2023-01-04T05:25:55.311Z,27.85
2023-01-04T05:28:41.043Z,29.00
2023-01-04T05:31:26.728Z,29.27
2023-01-04T05:34:15.840Z,30.25
2023-01-04T05:37:04.567Z,29.48
2023-01-04T05:39:50.095Z,29.67
2023-01-04T05:42:36.508Z,29.75
2023-01-04T05:45:22.940Z,28.77
2023-01-04T05:48:08.825Z,28.00
2023-01-04T05:50:54.303Z,27.92
2023-01-04T05:53:39.973Z,29.67
2023-01-04T05:56:25.910Z,32.08
2023-01-04T05:59:12.007Z,27.85
2023-01-04T06:01:58.403Z,30.02
2023-01-04T06:04:44.551Z,28.70
2023-01-04T06:07:30.457Z,31.27
2023-01-04T06:10:16.847Z,29.75
2023-01-04T06:13:02.720Z,30.55
2023-01-04T06:15:47.033Z,30.13
2023-01-04T06:19:23.539Z,28.13
2023-01-04T06:23:18.316Z,27.98
2023-01-04T06:31:48.656Z,26.48
2023-01-04T06:34:34.883Z,27.10
2023-01-04T06:37:20.381Z,26.95
2023-01-04T06:40:06.833Z,28.63
2023-01-04T06:42:52.292Z,32.85
2023-01-04T06:45:38.454Z,36.33
2023-01-04T06:48:24.157Z,28.90
2023-01-04T06:51:10.521Z,28.95
2023-01-04T06:53:56.104Z,28.88
2023-01-04T06:56:42.005Z,25.42
2023-01-04T06:59:27.957Z,27.25
2023-01-04T07:02:15.916Z,26.90
2023-01-04T07:05:02.296Z,27.98
2023-01-04T07:07:48.405Z,27.75
2023-01-04T07:10:34.009Z,28.85
2023-01-04T07:13:19.906Z,26.85
2023-01-04T07:16:05.919Z,27.25
2023-01-04T07:18:51.868Z,25.35
2023-01-04T07:21:37.489Z,26.90
2023-01-04T07:24:29.570Z,27.30
2023-01-04T07:27:16.258Z,25.27
2023-01-04T07:30:02.524Z,26.52
2023-01-04T07:43:43.620Z,26.33
2023-01-04T07:46:29.485Z,24.95
2023-01-04T07:49:17.789Z,26.40
2023-01-04T07:52:04.358Z,27.10
2023-01-04T07:54:57.214Z,24.48
2023-01-04T07:57:43.663Z,26.92
2023-01-04T08:00:29.291Z,24.85
2023-01-04T08:03:15.492Z,27.92
2023-01-04T08:06:12.007Z,33.38
2023-01-04T08:08:49.407Z,31.73
2023-01-04T08:11:35.523Z,35.03
2023-01-04T08:14:21.869Z,26.60
2023-01-04T08:17:07.392Z,25.73
2023-01-04T08:19:53.491Z,27.90
2023-01-04T08:22:39.099Z,29.67
2023-01-04T08:25:24.776Z,23.30
2023-01-04T08:28:10.385Z,24.00
2023-01-04T08:30:59.666Z,21.67
2023-01-04T08:33:45.822Z,23.75
2023-01-04T08:36:34.181Z,26.20
2023-01-04T08:39:21.901Z,26.60
2023-01-04T08:42:19.191Z,22.90
2023-01-04T08:45:08.766Z,22.85
2023-01-04T08:47:54.734Z,20.13
2023-01-04T08:50:40.309Z,19.88
2023-01-04T08:53:27.120Z,19.10
2023-01-04T08:56:14.935Z,20.98
2023-01-04T08:59:01.245Z,21.25
2023-01-04T09:01:47.166Z,20.45
2023-01-04T09:04:33.251Z,19.25
2023-01-04T09:07:18.832Z,17.90
2023-01-04T09:10:05.167Z,23.35
2023-01-04T09:12:51.174Z,21.42
2023-01-04T09:15:37.488Z,20.08
2023-01-04T09:18:32.463Z,21.25
2023-01-04T09:21:21.330Z,21.35
2023-01-04T09:24:07.184Z,25.55
2023-01-04T09:26:55.835Z,32.05
2023-01-04T09:29:41.607Z,40.50
2023-01-04T09:32:27.452Z,23.38
2023-01-04T09:35:12.854Z,19.92
2023-01-04T09:37:59.016Z,18.23
2023-01-04T09:41:01.455Z,17.52
2023-01-04T09:43:59.037Z,17.70
2023-01-04T09:46:52.024Z,17.70
2023-01-04T09:49:43.476Z,66.50
2023-01-04T09:52:52.136Z,32.08
2023-01-04T09:55:41.613Z,17.60
2023-01-04T09:58:39.871Z,19.75
2023-01-04T10:01:33.264Z,33.13
2023-01-04T10:04:29.435Z,38.42
2023-01-04T10:07:25.222Z,22.13
2023-01-04T10:10:23.053Z,18.27
2023-01-04T10:13:30.660Z,18.65
2023-01-04T10:17:11.922Z,15.70
2023-01-04T10:23:18.594Z,17.27
2023-01-04T10:26:14.737Z,21.83
2023-01-04T10:29:26.953Z,28.70
2023-01-04T10:32:20.611Z,31.00
2023-01-04T10:35:22.480Z,24.48
2023-01-04T10:38:17.299Z,17.35
2023-01-04T10:41:21.671Z,17.98
2023-01-04T10:44:18.973Z,20.08
2023-01-04T10:47:10.113Z,19.10
2023-01-04T10:49:58.968Z,18.70
2023-01-04T10:52:51.220Z,20.30
2023-01-04T10:55:39.419Z,24.67
2023-01-04T10:58:31.003Z,17.15
2023-01-04T11:01:30.296Z,16.10
2023-01-04T11:04:36.707Z,14.63
2023-01-04T11:07:37.079Z,15.18
2023-01-04T11:10:40.203Z,15.05
2023-01-04T11:13:26.367Z,18.00
2023-01-04T11:16:11.935Z,19.02
2023-01-04T11:18:58.580Z,21.83
2023-01-04T11:21:52.561Z,16.30
2023-01-04T11:24:38.954Z,19.35
2023-01-04T11:27:27.747Z,16.42
2023-01-04T11:30:16.383Z,21.45
2023-01-04T11:33:21.872Z,16.48
2023-01-04T11:36:09.728Z,18.20
2023-01-04T11:38:56.694Z,23.92
2023-01-04T11:42:02.938Z,29.02
2023-01-04T11:44:59.393Z,17.88
2023-01-04T11:48:02.407Z,17.38
2023-01-04T11:50:51.287Z,14.80
2023-01-04T11:53:37.888Z,18.85
2023-01-04T11:56:24.725Z,20.30
2023-01-04T11:59:24.900Z,21.52
2023-01-04T12:02:59.517Z,20.95
2023-01-04T12:05:32.141Z,16.35
2023-01-04T12:08:34.540Z,11.15
2023-01-04T12:11:29.998Z,13.25
2023-01-04T12:14:21.138Z,13.15
2023-01-04T12:17:38.302Z,12.77
2023-01-04T12:20:28.907Z,12.82
2023-01-04T12:23:15.277Z,14.20
2023-01-04T12:26:01.908Z,14.20
2023-01-04T12:28:50.660Z,14.57
2023-01-04T12:31:36.640Z,12.88
2023-01-04T12:34:22.244Z,12.35
2023-01-04T12:37:08.372Z,16.20
2023-01-04T12:39:54.183Z,33.05
2023-01-04T12:43:14.865Z,31.00
2023-01-04T12:46:50.697Z,35.08
2023-01-04T12:49:39.252Z,41.92
2023-01-04T12:52:48.049Z,32.28
2023-01-04T12:55:31.525Z,22.45
2023-01-04T13:01:36.673Z,75.35
2023-01-04T13:04:41.823Z,49.35
2023-01-04T13:07:31.035Z,21.92
2023-01-04T13:10:26.224Z,29.13
2023-01-04T13:13:26.862Z,15.38
2023-01-04T13:21:16.702Z,31.73
2023-01-04T13:24:22.757Z,42.65
2023-01-04T13:27:13.188Z,26.02
2023-01-04T13:29:59.398Z,28.47
2023-01-04T13:33:24.457Z,16.90
2023-01-04T13:36:02.248Z,13.98
2023-01-04T13:38:48.777Z,22.90
2023-01-04T13:41:35.127Z,13.77
2023-01-04T13:47:57.696Z,15.32
2023-01-04T13:50:49.093Z,30.88
2023-01-04T13:53:35.184Z,18.70
2023-01-04T13:56:24.298Z,16.10
2023-01-04T13:59:10.252Z,20.98
2023-01-04T14:01:57.980Z,17.45
2023-01-04T14:04:46.120Z,19.42
2023-01-04T14:07:35.196Z,16.38
2023-01-04T14:10:26.554Z,16.13
2023-01-04T14:13:20.995Z,15.88
2023-01-04T14:16:14.502Z,18.33
2023-01-04T14:19:27.327Z,15.23
2023-01-04T14:22:38.772Z,14.90
2023-01-04T14:25:31.012Z,16.35
2023-01-04T14:28:20.053Z,16.98
2023-01-04T14:31:12.036Z,17.90
2023-01-04T14:33:58.264Z,20.42
2023-01-04T14:36:44.693Z,14.35
2023-01-04T14:39:33.224Z,17.77
2023-01-04T14:42:27.410Z,14.40
2023-01-04T14:45:14.168Z,12.77
2023-01-04T14:48:00.557Z,11.48
2023-01-04T14:50:46.161Z,10.20
2023-01-04T14:53:32.496Z,11.70
2023-01-04T14:56:19.238Z,12.00
2023-01-04T14:59:07.775Z,8.07
2023-01-04T15:01:54.719Z,11.30
2023-01-04T15:04:41.042Z,9.65
2023-01-04T15:07:36.446Z,9.07
2023-01-04T15:10:26.175Z,10.82
2023-01-04T15:13:11.980Z,12.02
2023-01-04T15:15:58.980Z,14.85
2023-01-04T15:18:47.994Z,14.80
2023-01-04T15:21:40.540Z,14.95
2023-01-04T15:24:27.254Z,17.33
2023-01-04T15:27:13.510Z,13.50
2023-01-04T15:29:59.369Z,13.27
2023-01-04T15:32:45.671Z,12.50
2023-01-04T15:35:32.159Z,13.60
2023-01-04T15:38:20.664Z,11.40
2023-01-04T15:41:36.834Z,10.02
2023-01-04T15:44:31.697Z,9.57
2023-01-04T15:47:30.238Z,10.65
2023-01-04T15:54:49.524Z,11.25
2023-01-04T15:57:44.256Z,10.68
2023-01-04T16:00:42.979Z,9.30
2023-01-04T16:03:34.738Z,9.82
2023-01-04T16:10:07.612Z,8.88
2023-01-04T16:12:56.943Z,22.98
2023-01-04T16:15:42.821Z,11.75
2023-01-04T16:18:32.343Z,10.52
2023-01-04T16:21:21.233Z,8.98
2023-01-04T16:24:29.519Z,9.52
2023-01-04T16:27:15.778Z,11.48
2023-01-04T16:30:02.503Z,74.03
2023-01-04T16:32:50.178Z,38.28
2023-01-04T16:35:36.112Z,11.60
2023-01-04T16:38:21.795Z,13.00
2023-01-04T16:41:10.462Z,10.52
2023-01-04T16:43:59.514Z,9.80
2023-01-04T16:46:45.529Z,13.80
2023-01-04T16:49:32.617Z,12.95
2023-01-04T16:57:56.373Z,14.85
2023-01-04T17:00:43.743Z,15.48
2023-01-04T17:03:29.954Z,13.20
2023-01-04T17:06:24.798Z,15.95
2023-01-04T17:09:13.312Z,8.75
2023-01-04T17:16:20.803Z,12.13
2023-01-04T17:32:46.961Z,7.50
2023-01-04T17:35:58.383Z,7.53
2023-01-04T17:38:51.792Z,9.07
2023-01-04T17:42:40.801Z,10.15
2023-01-04T17:46:55.736Z,9.38
2023-01-04T18:37:49.145Z,10.30
2023-01-04T19:49:17.333Z,10.27
2023-01-04T20:00:19.939Z,8.98
2023-01-04T20:13:23.007Z,11.85
2023-01-04T20:16:56.644Z,45.60
2023-01-04T20:20:22.548Z,11.77
2023-01-04T23:51:02.036Z,3.03
